Nefterudovoz-29m — UIMI — position and weather

sailwx.info

Track history (hours):
 
Tides and Currents Weather Stations Pressure Air Temp Water Temp Dewpoint Dewpoint Depression Visibility Wind Speed Wind Dir Waves Ship Positions

Nefterudovoz-29m

Last reported at 2015-Apr-25 11:08 UTC. Time now 2015-May-29 18:21 UTC.
Position N 45°08' E 036°30'.
Warning: this ship's position is 34 days out of date.

Length 119 m; draft 2.6 m.

Type: Cargo ship. MMSI: 273345300.

Date/timePositionNaut miles runAvg speedWind from/ knotsBaromVisibWave heightAir tempDewpointWater temp
2015-Apr-25 11:08N 45°08' E 036°30'4 6.7
2015-Apr-25 10:32N 45°04' E 036°31'10 7.7
2015-Apr-25 09:14N 44°54' E 036°31'5 7.2
2015-Apr-25 08:33N 44°49' E 036°31'8 7.6
2015-Apr-25 07:34N 44°44' E 036°24'12 6.2
2015-Apr-25 05:33N 44°44' E 036°06'7 6.9
2015-Apr-25 04:33N 44°43' E 035°57'7 7.1
2015-Apr-25 03:33N 44°43' E 035°47'7 7.1
2015-Apr-25 02:33N 44°44' E 035°37'7 7.0
2015-Apr-25 01:33N 44°44' E 035°27'7 6.9
2015-Apr-25 00:33N 44°44' E 035°17'7 6.9
2015-Apr-24 23:33N 44°41' E 035°08'7 6.9
2015-Apr-24 22:33N 44°39' E 034°59'7 6.9
2015-Apr-24 21:34N 44°36' E 034°50'7 7.0
2015-Apr-24 20:33N 44°33' E 034°41'7 6.9
2015-Apr-24 19:33N 44°30' E 034°32'6 6.4
2015-Apr-24 18:33N 44°29' E 034°23'7 7.0
2015-Apr-24 17:33N 44°29' E 034°14'1 0.0
2015-Apr-23 12:23N 44°29' E 034°12'5 6.1
2015-Apr-23 11:33N 44°29' E 034°19'7 6.6
2015-Apr-23 10:34N 44°31' E 034°28'7 7.0
2015-Apr-23 09:33N 44°33' E 034°38'7 7.3
2015-Apr-23 08:33N 44°35' E 034°48'7 7.4
2015-Apr-23 07:33N 44°37' E 034°57'7 7.4
2015-Apr-23 06:33N 44°40' E 035°07'7 7.3
2015-Apr-23 05:33N 44°42' E 035°17'  
2015-Apr-16 19:20N 44°59' E 036°31'6 7.4
2015-Apr-16 18:33N 44°53' E 036°31'6 6.3
2015-Apr-16 17:32N 44°51' E 036°22'7 6.7
2015-Apr-16 16:33N 44°51' E 036°13'6 6.2
2015-Apr-16 15:33N 44°49' E 036°04'6 6.5
2015-Apr-16 14:33N 44°48' E 035°55'7 6.5
2015-Apr-16 13:33N 44°46' E 035°46'7 6.8
2015-Apr-16 12:33N 44°44' E 035°37'7 6.8
2015-Apr-16 11:33N 44°44' E 035°28'7 6.9
2015-Apr-16 10:33N 44°43' E 035°18'7 7.0
2015-Apr-16 09:33N 44°43' E 035°08'7 7.1
2015-Apr-16 08:33N 44°40' E 034°59'7 7.0
2015-Apr-16 07:33N 44°37' E 034°50'7 7.0
2015-Apr-16 06:34N 44°34' E 034°41'7 7.1
2015-Apr-16 05:33N 44°31' E 034°32'7 7.1
2015-Apr-16 04:33N 44°28' E 034°23'5 4.6
2015-Apr-16 03:33N 44°28' E 034°17'  
Track history (hours):
 
Tides and Currents Weather Stations Pressure Air Temp Water Temp Dewpoint Dewpoint Depression Visibility Wind Speed Wind Dir Waves Ship Positions

Nefterudovoz-29m

Last reported at 2015-Apr-25 11:08 UTC. Time now 2015-May-29 18:21 UTC.
Position N 45°08' E 036°30'.
Warning: this ship's position is 34 days out of date.

Length 119 m; draft 2.6 m.

Type: Cargo ship. MMSI: 273345300.

Date/timePositionNaut miles runAvg speedWind from/ knotsBaromVisibWave heightAir tempDewpointWater temp
2015-Apr-25 11:08N 45°08' E 036°30'4 6.7
2015-Apr-25 10:32N 45°04' E 036°31'10 7.7
2015-Apr-25 09:14N 44°54' E 036°31'5 7.2
2015-Apr-25 08:33N 44°49' E 036°31'8 7.6
2015-Apr-25 07:34N 44°44' E 036°24'12 6.2
2015-Apr-25 05:33N 44°44' E 036°06'7 6.9
2015-Apr-25 04:33N 44°43' E 035°57'7 7.1
2015-Apr-25 03:33N 44°43' E 035°47'7 7.1
2015-Apr-25 02:33N 44°44' E 035°37'7 7.0
2015-Apr-25 01:33N 44°44' E 035°27'7 6.9
2015-Apr-25 00:33N 44°44' E 035°17'7 6.9
2015-Apr-24 23:33N 44°41' E 035°08'7 6.9
2015-Apr-24 22:33N 44°39' E 034°59'7 6.9
2015-Apr-24 21:34N 44°36' E 034°50'7 7.0
2015-Apr-24 20:33N 44°33' E 034°41'7 6.9
2015-Apr-24 19:33N 44°30' E 034°32'6 6.4
2015-Apr-24 18:33N 44°29' E 034°23'7 7.0
2015-Apr-24 17:33N 44°29' E 034°14'1 0.0
2015-Apr-23 12:23N 44°29' E 034°12'5 6.1
2015-Apr-23 11:33N 44°29' E 034°19'7 6.6
2015-Apr-23 10:34N 44°31' E 034°28'7 7.0
2015-Apr-23 09:33N 44°33' E 034°38'7 7.3
2015-Apr-23 08:33N 44°35' E 034°48'7 7.4
2015-Apr-23 07:33N 44°37' E 034°57'7 7.4
2015-Apr-23 06:33N 44°40' E 035°07'7 7.3
2015-Apr-23 05:33N 44°42' E 035°17'  
2015-Apr-16 19:20N 44°59' E 036°31'6 7.4
2015-Apr-16 18:33N 44°53' E 036°31'6 6.3
2015-Apr-16 17:32N 44°51' E 036°22'7 6.7
2015-Apr-16 16:33N 44°51' E 036°13'6 6.2
2015-Apr-16 15:33N 44°49' E 036°04'6 6.5
2015-Apr-16 14:33N 44°48' E 035°55'7 6.5
2015-Apr-16 13:33N 44°46' E 035°46'7 6.8
2015-Apr-16 12:33N 44°44' E 035°37'7 6.8
2015-Apr-16 11:33N 44°44' E 035°28'7 6.9
2015-Apr-16 10:33N 44°43' E 035°18'7 7.0
2015-Apr-16 09:33N 44°43' E 035°08'7 7.1
2015-Apr-16 08:33N 44°40' E 034°59'7 7.0
2015-Apr-16 07:33N 44°37' E 034°50'7 7.0
2015-Apr-16 06:34N 44°34' E 034°41'7 7.1
2015-Apr-16 05:33N 44°31' E 034°32'7 7.1
2015-Apr-16 04:33N 44°28' E 034°23'5 4.6
2015-Apr-16 03:33N 44°28' E 034°17'  

Dump ship's entire track history